sensor_id;sensor_type;location;lat;lon;timestamp;temperature;humidity
12771;DHT22;6449;47.666;9.160;2023-08-12T00:02:01;19.10;99.90
12771;DHT22;6449;47.666;9.160;2023-08-12T00:06:54;19.10;99.90
12771;DHT22;6449;47.666;9.160;2023-08-12T00:11:48;19.00;99.90
12771;DHT22;6449;47.666;9.160;2023-08-12T00:16:42;18.90;99.90
12771;DHT22;6449;47.666;9.160;2023-08-12T00:21:36;18.80;99.90
12771;DHT22;6449;47.666;9.160;2023-08-12T00:26:29;18.80;99.90
12771;DHT22;6449;47.666;9.160;2023-08-12T00:31:22;18.70;99.90
12771;DHT22;6449;47.666;9.160;2023-08-12T00:36:17;18.90;99.90
12771;DHT22;6449;47.666;9.160;2023-08-12T00:41:11;18.90;99.90
12771;DHT22;6449;47.666;9.160;2023-08-12T00:46:04;18.80;99.90
12771;DHT22;6449;47.666;9.160;2023-08-12T00:50:57;18.80;99.90
12771;DHT22;6449;47.666;9.160;2023-08-12T00:55:53;18.60;99.90
12771;DHT22;6449;47.666;9.160;2023-08-12T01:00:46;18.40;99.90
12771;DHT22;6449;47.666;9.160;2023-08-12T01:05:40;18.20;99.90
12771;DHT22;6449;47.666;9.160;2023-08-12T01:10:36;18.30;99.90
12771;DHT22;6449;47.666;9.160;2023-08-12T01:15:34;18.40;99.90
12771;DHT22;6449;47.666;9.160;2023-08-12T01:20:29;18.40;99.90
12771;DHT22;6449;47.666;9.160;2023-08-12T01:25:25;18.30;99.90
12771;DHT22;6449;47.666;9.160;2023-08-12T01:30:20;18.30;99.90
12771;DHT22;6449;47.666;9.160;2023-08-12T01:35:16;18.40;99.90
12771;DHT22;6449;47.666;9.160;2023-08-12T01:40:14;18.30;99.90
12771;DHT22;6449;47.666;9.160;2023-08-12T01:45:11;18.20;99.90
12771;DHT22;6449;47.666;9.160;2023-08-12T01:50:05;18.10;99.90
12771;DHT22;6449;47.666;9.160;2023-08-12T01:54:59;18.00;99.90
12771;DHT22;6449;47.666;9.160;2023-08-12T01:59:52;18.00;99.90
12771;DHT22;6449;47.666;9.160;2023-08-12T02:04:47;18.10;99.90
12771;DHT22;6449;47.666;9.160;2023-08-12T02:09:40;18.10;99.90
12771;DHT22;6449;47.666;9.160;2023-08-12T02:14:34;18.10;99.90
12771;DHT22;6449;47.666;9.160;2023-08-12T02:19:28;18.10;99.90
12771;DHT22;6449;47.666;9.160;2023-08-12T02:24:23;18.10;99.90
12771;DHT22;6449;47.666;9.160;2023-08-12T02:29:16;18.00;99.90
12771;DHT22;6449;47.666;9.160;2023-08-12T02:34:11;17.90;99.90
12771;DHT22;6449;47.666;9.160;2023-08-12T02:39:04;17.90;99.90
12771;DHT22;6449;47.666;9.160;2023-08-12T02:43:59;18.10;99.90
12771;DHT22;6449;47.666;9.160;2023-08-12T02:48:52;18.10;99.90
12771;DHT22;6449;47.666;9.160;2023-08-12T02:53:46;18.10;99.90
12771;DHT22;6449;47.666;9.160;2023-08-12T02:58:39;18.10;99.90
12771;DHT22;6449;47.666;9.160;2023-08-12T03:03:34;18.00;99.90
12771;DHT22;6449;47.666;9.160;2023-08-12T03:08:27;18.00;99.90
12771;DHT22;6449;47.666;9.160;2023-08-12T03:13:21;18.00;99.90
12771;DHT22;6449;47.666;9.160;2023-08-12T03:18:14;17.90;99.90
12771;DHT22;6449;47.666;9.160;2023-08-12T03:23:09;17.90;99.90
12771;DHT22;6449;47.666;9.160;2023-08-12T03:28:03;17.90;99.90
12771;DHT22;6449;47.666;9.160;2023-08-12T03:32:56;18.00;99.90
12771;DHT22;6449;47.666;9.160;2023-08-12T03:37:50;17.90;99.90
12771;DHT22;6449;47.666;9.160;2023-08-12T03:42:45;18.00;99.90
12771;DHT22;6449;47.666;9.160;2023-08-12T03:47:39;17.90;99.90
12771;DHT22;6449;47.666;9.160;2023-08-12T03:52:32;17.90;99.90
12771;DHT22;6449;47.666;9.160;2023-08-12T03:57:25;17.90;99.90
12771;DHT22;6449;47.666;9.160;2023-08-12T04:02:20;18.00;99.90
12771;DHT22;6449;47.666;9.160;2023-08-12T04:07:13;18.10;99.90
12771;DHT22;6449;47.666;9.160;2023-08-12T04:12:07;17.90;99.90
12771;DHT22;6449;47.666;9.160;2023-08-12T04:17:00;17.80;99.90
12771;DHT22;6449;47.666;9.160;2023-08-12T04:21:55;17.70;99.90
12771;DHT22;6449;47.666;9.160;2023-08-12T04:26:49;17.80;99.90
12771;DHT22;6449;47.666;9.160;2023-08-12T04:31:42;17.80;99.90
12771;DHT22;6449;47.666;9.160;2023-08-12T04:36:35;17.90;99.90
12771;DHT22;6449;47.666;9.160;2023-08-12T04:41:30;17.90;99.90
12771;DHT22;6449;47.666;9.160;2023-08-12T04:46:25;17.80;99.90
12771;DHT22;6449;47.666;9.160;2023-08-12T04:51:18;17.80;99.90
12771;DHT22;6449;47.666;9.160;2023-08-12T04:56:12;17.80;99.90
12771;DHT22;6449;47.666;9.160;2023-08-12T05:01:08;17.80;99.90
12771;DHT22;6449;47.666;9.160;2023-08-12T05:06:01;17.80;99.90
12771;DHT22;6449;47.666;9.160;2023-08-12T05:10:54;18.10;99.90
12771;DHT22;6449;47.666;9.160;2023-08-12T05:15:48;18.20;99.90
12771;DHT22;6449;47.666;9.160;2023-08-12T05:20:42;18.20;99.90
12771;DHT22;6449;47.666;9.160;2023-08-12T05:25:40;18.30;99.90
12771;DHT22;6449;47.666;9.160;2023-08-12T05:30:33;18.20;99.90
12771;DHT22;6449;47.666;9.160;2023-08-12T05:35:27;18.30;99.90
12771;DHT22;6449;47.666;9.160;2023-08-12T05:40:22;18.40;99.90
12771;DHT22;6449;47.666;9.160;2023-08-12T05:45:15;18.30;99.90
12771;DHT22;6449;47.666;9.160;2023-08-12T05:50:09;18.40;99.90
12771;DHT22;6449;47.666;9.160;2023-08-12T05:55:03;18.60;99.90
12771;DHT22;6449;47.666;9.160;2023-08-12T05:59:59;18.60;99.90
12771;DHT22;6449;47.666;9.160;2023-08-12T06:04:52;18.60;99.90
12771;DHT22;6449;47.666;9.160;2023-08-12T06:09:45;18.60;99.90
12771;DHT22;6449;47.666;9.160;2023-08-12T06:14:39;18.60;99.90
12771;DHT22;6449;47.666;9.160;2023-08-12T06:19:34;18.60;99.90
12771;DHT22;6449;47.666;9.160;2023-08-12T06:24:27;18.70;99.90
12771;DHT22;6449;47.666;9.160;2023-08-12T06:29:20;18.80;99.90
12771;DHT22;6449;47.666;9.160;2023-08-12T06:34:14;18.80;99.90
12771;DHT22;6449;47.666;9.160;2023-08-12T06:39:08;18.80;99.90
12771;DHT22;6449;47.666;9.160;2023-08-12T06:44:02;19.00;99.90
12771;DHT22;6449;47.666;9.160;2023-08-12T06:48:56;19.20;99.90
12771;DHT22;6449;47.666;9.160;2023-08-12T06:53:49;19.30;99.90
12771;DHT22;6449;47.666;9.160;2023-08-12T06:58:44;19.30;99.90
12771;DHT22;6449;47.666;9.160;2023-08-12T07:03:37;19.40;99.90
12771;DHT22;6449;47.666;9.160;2023-08-12T07:08:30;19.60;99.90
12771;DHT22;6449;47.666;9.160;2023-08-12T07:13:24;19.80;99.90
12771;DHT22;6449;47.666;9.160;2023-08-12T07:18:19;19.90;99.90
12771;DHT22;6449;47.666;9.160;2023-08-12T07:23:12;20.00;99.90
12771;DHT22;6449;47.666;9.160;2023-08-12T07:28:05;20.20;99.90
12771;DHT22;6449;47.666;9.160;2023-08-12T07:32:59;20.30;99.90
12771;DHT22;6449;47.666;9.160;2023-08-12T07:37:54;20.60;99.90
12771;DHT22;6449;47.666;9.160;2023-08-12T07:42:47;20.80;99.90
12771;DHT22;6449;47.666;9.160;2023-08-12T07:47:41;21.10;99.90
12771;DHT22;6449;47.666;9.160;2023-08-12T07:52:34;21.50;99.90
12771;DHT22;6449;47.666;9.160;2023-08-12T07:57:29;21.80;99.90
12771;DHT22;6449;47.666;9.160;2023-08-12T08:02:25;22.20;99.90
12771;DHT22;6449;47.666;9.160;2023-08-12T08:07:19;22.60;99.90
12771;DHT22;6449;47.666;9.160;2023-08-12T08:12:13;22.90;99.90
12771;DHT22;6449;47.666;9.160;2023-08-12T08:17:08;22.90;99.90
12771;DHT22;6449;47.666;9.160;2023-08-12T08:22:02;22.90;99.90
12771;DHT22;6449;47.666;9.160;2023-08-12T08:26:58;23.00;99.90
12771;DHT22;6449;47.666;9.160;2023-08-12T08:31:52;22.70;99.90
12771;DHT22;6449;47.666;9.160;2023-08-12T08:36:47;22.60;99.90
12771;DHT22;6449;47.666;9.160;2023-08-12T08:41:41;22.60;99.90
12771;DHT22;6449;47.666;9.160;2023-08-12T08:46:36;22.80;99.90
12771;DHT22;6449;47.666;9.160;2023-08-12T08:51:31;23.00;99.90
12771;DHT22;6449;47.666;9.160;2023-08-12T08:56:26;23.10;99.90
12771;DHT22;6449;47.666;9.160;2023-08-12T09:01:21;23.00;99.90
12771;DHT22;6449;47.666;9.160;2023-08-12T09:06:15;22.80;99.90
12771;DHT22;6449;47.666;9.160;2023-08-12T09:11:10;22.80;99.90
12771;DHT22;6449;47.666;9.160;2023-08-12T09:16:07;22.90;99.90
12771;DHT22;6449;47.666;9.160;2023-08-12T09:21:01;23.10;99.90
12771;DHT22;6449;47.666;9.160;2023-08-12T09:25:55;23.30;99.90
12771;DHT22;6449;47.666;9.160;2023-08-12T09:30:50;23.30;99.90
12771;DHT22;6449;47.666;9.160;2023-08-12T09:35:46;23.20;99.90
12771;DHT22;6449;47.666;9.160;2023-08-12T09:40:40;23.20;99.90
12771;DHT22;6449;47.666;9.160;2023-08-12T09:45:34;23.10;99.90
12771;DHT22;6449;47.666;9.160;2023-08-12T09:50:28;23.20;99.90
12771;DHT22;6449;47.666;9.160;2023-08-12T09:55:25;23.90;99.90
12771;DHT22;6449;47.666;9.160;2023-08-12T10:00:19;24.50;99.90
12771;DHT22;6449;47.666;9.160;2023-08-12T10:05:17;25.00;99.90
12771;DHT22;6449;47.666;9.160;2023-08-12T10:10:14;25.20;99.90
12771;DHT22;6449;47.666;9.160;2023-08-12T10:15:10;25.00;99.90
12771;DHT22;6449;47.666;9.160;2023-08-12T10:20:05;24.80;99.90
12771;DHT22;6449;47.666;9.160;2023-08-12T10:25:01;24.50;99.90
12771;DHT22;6449;47.666;9.160;2023-08-12T10:29:56;24.30;99.90
12771;DHT22;6449;47.666;9.160;2023-08-12T10:34:55;24.20;99.90
12771;DHT22;6449;47.666;9.160;2023-08-12T10:39:49;24.00;99.90
12771;DHT22;6449;47.666;9.160;2023-08-12T10:44:50;23.90;99.90
12771;DHT22;6449;47.666;9.160;2023-08-12T10:49:48;23.60;99.90
12771;DHT22;6449;47.666;9.160;2023-08-12T10:54:47;23.40;99.90
12771;DHT22;6449;47.666;9.160;2023-08-12T10:59:51;23.40;99.90
12771;DHT22;6449;47.666;9.160;2023-08-12T11:04:53;23.40;99.90
12771;DHT22;6449;47.666;9.160;2023-08-12T11:09:53;23.50;99.90
12771;DHT22;6449;47.666;9.160;2023-08-12T11:14:49;23.50;99.90
12771;DHT22;6449;47.666;9.160;2023-08-12T11:19:46;23.40;99.90
12771;DHT22;6449;47.666;9.160;2023-08-12T11:24:41;23.40;99.90
12771;DHT22;6449;47.666;9.160;2023-08-12T11:29:37;23.40;99.90
12771;DHT22;6449;47.666;9.160;2023-08-12T11:34:33;23.60;99.90
12771;DHT22;6449;47.666;9.160;2023-08-12T11:39:26;24.00;99.90
12771;DHT22;6449;47.666;9.160;2023-08-12T11:44:22;24.30;99.90
12771;DHT22;6449;47.666;9.160;2023-08-12T11:49:17;24.30;99.90
12771;DHT22;6449;47.666;9.160;2023-08-12T11:54:11;24.20;99.90
12771;DHT22;6449;47.666;9.160;2023-08-12T11:59:05;24.20;99.90
12771;DHT22;6449;47.666;9.160;2023-08-12T12:04:00;24.10;99.90
12771;DHT22;6449;47.666;9.160;2023-08-12T12:08:55;24.00;99.90
12771;DHT22;6449;47.666;9.160;2023-08-12T12:13:48;23.90;99.90
12771;DHT22;6449;47.666;9.160;2023-08-12T12:18:43;23.80;99.90
12771;DHT22;6449;47.666;9.160;2023-08-12T12:23:37;23.80;99.90
12771;DHT22;6449;47.666;9.160;2023-08-12T12:28:32;23.80;99.90
12771;DHT22;6449;47.666;9.160;2023-08-12T12:33:25;23.80;99.90
12771;DHT22;6449;47.666;9.160;2023-08-12T12:38:19;23.90;99.90
12771;DHT22;6449;47.666;9.160;2023-08-12T12:43:12;24.00;99.90
12771;DHT22;6449;47.666;9.160;2023-08-12T12:48:07;24.20;99.90
12771;DHT22;6449;47.666;9.160;2023-08-12T12:53:00;24.20;99.90
12771;DHT22;6449;47.666;9.160;2023-08-12T12:57:54;24.30;99.90
12771;DHT22;6449;47.666;9.160;2023-08-12T13:02:47;24.20;99.90
12771;DHT22;6449;47.666;9.160;2023-08-12T13:07:42;24.40;99.90
12771;DHT22;6449;47.666;9.160;2023-08-12T13:12:35;24.80;99.90
12771;DHT22;6449;47.666;9.160;2023-08-12T13:17:28;24.90;99.90
12771;DHT22;6449;47.666;9.160;2023-08-12T13:22:22;24.80;99.90
12771;DHT22;6449;47.666;9.160;2023-08-12T13:27:17;24.80;99.90
12771;DHT22;6449;47.666;9.160;2023-08-12T13:32:10;24.80;99.90
12771;DHT22;6449;47.666;9.160;2023-08-12T13:37:04;25.00;99.90
12771;DHT22;6449;47.666;9.160;2023-08-12T13:41:57;25.10;99.90
12771;DHT22;6449;47.666;9.160;2023-08-12T13:46:52;25.10;99.90
12771;DHT22;6449;47.666;9.160;2023-08-12T13:51:45;25.10;99.90
12771;DHT22;6449;47.666;9.160;2023-08-12T13:56:39;25.10;99.90
12771;DHT22;6449;47.666;9.160;2023-08-12T14:01:32;25.20;99.90
12771;DHT22;6449;47.666;9.160;2023-08-12T14:06:27;25.30;99.90
12771;DHT22;6449;47.666;9.160;2023-08-12T14:11:20;25.40;99.90
12771;DHT22;6449;47.666;9.160;2023-08-12T14:16:13;25.50;99.90
12771;DHT22;6449;47.666;9.160;2023-08-12T14:21:07;25.60;99.90
12771;DHT22;6449;47.666;9.160;2023-08-12T14:26:01;25.70;99.90
12771;DHT22;6449;47.666;9.160;2023-08-12T14:30:55;25.60;99.90
12771;DHT22;6449;47.666;9.160;2023-08-12T14:35:48;25.60;99.90
12771;DHT22;6449;47.666;9.160;2023-08-12T14:40:47;25.60;99.90
12771;DHT22;6449;47.666;9.160;2023-08-12T14:45:44;25.60;99.90
12771;DHT22;6449;47.666;9.160;2023-08-12T14:50:38;25.60;99.90
12771;DHT22;6449;47.666;9.160;2023-08-12T14:55:33;25.60;99.90
12771;DHT22;6449;47.666;9.160;2023-08-12T15:00:26;25.50;99.90
12771;DHT22;6449;47.666;9.160;2023-08-12T15:05:21;25.40;99.90
12771;DHT22;6449;47.666;9.160;2023-08-12T15:10:14;25.40;99.90
12771;DHT22;6449;47.666;9.160;2023-08-12T15:15:08;25.40;99.90
12771;DHT22;6449;47.666;9.160;2023-08-12T15:20:02;25.30;99.90
12771;DHT22;6449;47.666;9.160;2023-08-12T15:24:59;25.20;99.90
12771;DHT22;6449;47.666;9.160;2023-08-12T15:29:52;25.10;99.90
12771;DHT22;6449;47.666;9.160;2023-08-12T15:34:46;25.00;99.90
12771;DHT22;6449;47.666;9.160;2023-08-12T15:39:39;24.90;99.90
12771;DHT22;6449;47.666;9.160;2023-08-12T15:44:34;24.80;99.90
12771;DHT22;6449;47.666;9.160;2023-08-12T15:49:32;24.70;99.90
12771;DHT22;6449;47.666;9.160;2023-08-12T15:54:25;24.70;99.90
12771;DHT22;6449;47.666;9.160;2023-08-12T15:59:19;24.60;99.90
12771;DHT22;6449;47.666;9.160;2023-08-12T16:04:15;24.60;99.90
12771;DHT22;6449;47.666;9.160;2023-08-12T16:09:09;24.70;99.90
12771;DHT22;6449;47.666;9.160;2023-08-12T16:14:10;24.70;99.90
12771;DHT22;6449;47.666;9.160;2023-08-12T16:19:03;24.80;99.90
12771;DHT22;6449;47.666;9.160;2023-08-12T16:23:59;24.80;99.90
12771;DHT22;6449;47.666;9.160;2023-08-12T16:28:52;24.90;99.90
12771;DHT22;6449;47.666;9.160;2023-08-12T16:33:46;24.90;99.90
12771;DHT22;6449;47.666;9.160;2023-08-12T16:38:39;24.80;99.90
12771;DHT22;6449;47.666;9.160;2023-08-12T16:43:34;24.70;99.90
12771;DHT22;6449;47.666;9.160;2023-08-12T16:48:28;24.60;99.90
12771;DHT22;6449;47.666;9.160;2023-08-12T16:53:21;24.40;99.90
12771;DHT22;6449;47.666;9.160;2023-08-12T16:58:14;24.40;99.90
12771;DHT22;6449;47.666;9.160;2023-08-12T17:03:09;24.40;99.90
12771;DHT22;6449;47.666;9.160;2023-08-12T17:08:03;24.50;99.90
12771;DHT22;6449;47.666;9.160;2023-08-12T17:12:56;24.50;99.90
12771;DHT22;6449;47.666;9.160;2023-08-12T17:17:50;24.50;99.90
12771;DHT22;6449;47.666;9.160;2023-08-12T17:22:44;24.50;99.90
12771;DHT22;6449;47.666;9.160;2023-08-12T17:27:38;24.40;99.90
12771;DHT22;6449;47.666;9.160;2023-08-12T17:32:31;24.50;99.90
12771;DHT22;6449;47.666;9.160;2023-08-12T17:37:25;24.40;99.90
12771;DHT22;6449;47.666;9.160;2023-08-12T17:42:20;24.30;99.90
12771;DHT22;6449;47.666;9.160;2023-08-12T17:47:13;24.30;99.90
12771;DHT22;6449;47.666;9.160;2023-08-12T17:52:08;24.30;99.90
12771;DHT22;6449;47.666;9.160;2023-08-12T17:57:02;24.30;99.90
12771;DHT22;6449;47.666;9.160;2023-08-12T18:01:57;24.20;99.90
12771;DHT22;6449;47.666;9.160;2023-08-12T18:06:50;24.20;99.90
12771;DHT22;6449;47.666;9.160;2023-08-12T18:11:44;24.20;99.90
12771;DHT22;6449;47.666;9.160;2023-08-12T18:16:37;24.20;99.90
12771;DHT22;6449;47.666;9.160;2023-08-12T18:21:32;24.10;99.90
12771;DHT22;6449;47.666;9.160;2023-08-12T18:26:26;24.00;99.90
12771;DHT22;6449;47.666;9.160;2023-08-12T18:31:19;23.80;99.90
12771;DHT22;6449;47.666;9.160;2023-08-12T18:36:12;23.70;99.90
12771;DHT22;6449;47.666;9.160;2023-08-12T18:41:07;23.60;99.90
12771;DHT22;6449;47.666;9.160;2023-08-12T18:46:01;23.50;99.90
12771;DHT22;6449;47.666;9.160;2023-08-12T18:50:54;23.40;99.90
12771;DHT22;6449;47.666;9.160;2023-08-12T18:55:47;23.20;99.90
12771;DHT22;6449;47.666;9.160;2023-08-12T19:00:42;23.10;99.90
12771;DHT22;6449;47.666;9.160;2023-08-12T19:05:35;23.00;99.90
12771;DHT22;6449;47.666;9.160;2023-08-12T19:10:29;22.90;99.90
12771;DHT22;6449;47.666;9.160;2023-08-12T19:15:22;22.80;99.90
12771;DHT22;6449;47.666;9.160;2023-08-12T19:20:17;22.70;99.90
12771;DHT22;6449;47.666;9.160;2023-08-12T19:25:10;22.70;99.90
12771;DHT22;6449;47.666;9.160;2023-08-12T19:30:05;22.60;99.90
12771;DHT22;6449;47.666;9.160;2023-08-12T19:34:59;22.60;99.90
12771;DHT22;6449;47.666;9.160;2023-08-12T19:39:53;22.70;99.90
12771;DHT22;6449;47.666;9.160;2023-08-12T19:44:47;22.80;99.90
12771;DHT22;6449;47.666;9.160;2023-08-12T19:49:40;22.90;99.90
12771;DHT22;6449;47.666;9.160;2023-08-12T19:54:33;22.90;99.90
12771;DHT22;6449;47.666;9.160;2023-08-12T19:59:28;22.90;99.90
12771;DHT22;6449;47.666;9.160;2023-08-12T20:04:22;22.90;99.90
12771;DHT22;6449;47.666;9.160;2023-08-12T20:09:15;22.80;99.90
12771;DHT22;6449;47.666;9.160;2023-08-12T20:14:09;22.70;99.90
12771;DHT22;6449;47.666;9.160;2023-08-12T20:19:03;22.70;99.90
12771;DHT22;6449;47.666;9.160;2023-08-12T20:23:57;22.60;99.90
12771;DHT22;6449;47.666;9.160;2023-08-12T20:28:50;22.60;99.90
12771;DHT22;6449;47.666;9.160;2023-08-12T20:33:44;22.60;99.90
12771;DHT22;6449;47.666;9.160;2023-08-12T20:38:39;22.60;99.90
12771;DHT22;6449;47.666;9.160;2023-08-12T20:43:33;22.60;99.90
12771;DHT22;6449;47.666;9.160;2023-08-12T20:48:27;22.50;99.90
12771;DHT22;6449;47.666;9.160;2023-08-12T20:53:20;22.60;99.90
12771;DHT22;6449;47.666;9.160;2023-08-12T20:58:15;22.50;99.90
12771;DHT22;6449;47.666;9.160;2023-08-12T21:03:08;22.40;99.90
12771;DHT22;6449;47.666;9.160;2023-08-12T21:08:02;22.20;99.90
12771;DHT22;6449;47.666;9.160;2023-08-12T21:12:56;22.00;99.90
12771;DHT22;6449;47.666;9.160;2023-08-12T21:17:53;21.90;99.90
12771;DHT22;6449;47.666;9.160;2023-08-12T21:22:48;21.90;99.90
12771;DHT22;6449;47.666;9.160;2023-08-12T21:27:44;21.80;99.90
12771;DHT22;6449;47.666;9.160;2023-08-12T21:32:37;21.80;99.90
12771;DHT22;6449;47.666;9.160;2023-08-12T21:37:35;21.70;99.90
12771;DHT22;6449;47.666;9.160;2023-08-12T21:42:28;21.80;99.90
12771;DHT22;6449;47.666;9.160;2023-08-12T21:47:22;21.70;99.90
12771;DHT22;6449;47.666;9.160;2023-08-12T21:52:15;21.70;99.90
12771;DHT22;6449;47.666;9.160;2023-08-12T21:57:10;21.60;99.90
12771;DHT22;6449;47.666;9.160;2023-08-12T22:02:04;21.40;99.90
12771;DHT22;6449;47.666;9.160;2023-08-12T22:07:01;21.40;99.90
12771;DHT22;6449;47.666;9.160;2023-08-12T22:12:00;21.50;99.90
12771;DHT22;6449;47.666;9.160;2023-08-12T22:16:55;21.40;99.90
12771;DHT22;6449;47.666;9.160;2023-08-12T22:21:49;21.30;99.90
12771;DHT22;6449;47.666;9.160;2023-08-12T22:26:56;21.30;99.90
12771;DHT22;6449;47.666;9.160;2023-08-12T22:31:49;21.30;99.90
12771;DHT22;6449;47.666;9.160;2023-08-12T22:36:44;21.50;99.90
12771;DHT22;6449;47.666;9.160;2023-08-12T22:41:37;21.60;99.90
12771;DHT22;6449;47.666;9.160;2023-08-12T22:46:31;21.60;99.90
12771;DHT22;6449;47.666;9.160;2023-08-12T22:51:24;21.70;99.90
12771;DHT22;6449;47.666;9.160;2023-08-12T22:56:19;21.60;99.90
12771;DHT22;6449;47.666;9.160;2023-08-12T23:01:12;21.70;99.90
12771;DHT22;6449;47.666;9.160;2023-08-12T23:06:06;21.70;99.90
12771;DHT22;6449;47.666;9.160;2023-08-12T23:10:59;21.70;99.90
12771;DHT22;6449;47.666;9.160;2023-08-12T23:15:54;21.70;99.90
12771;DHT22;6449;47.666;9.160;2023-08-12T23:20:47;21.70;99.90
12771;DHT22;6449;47.666;9.160;2023-08-12T23:25:43;21.60;99.90
12771;DHT22;6449;47.666;9.160;2023-08-12T23:30:36;21.70;99.90
12771;DHT22;6449;47.666;9.160;2023-08-12T23:35:31;21.70;99.90
12771;DHT22;6449;47.666;9.160;2023-08-12T23:40:25;21.70;99.90
12771;DHT22;6449;47.666;9.160;2023-08-12T23:45:18;21.80;99.90
12771;DHT22;6449;47.666;9.160;2023-08-12T23:50:12;21.90;99.90
12771;DHT22;6449;47.666;9.160;2023-08-12T23:55:07;21.80;99.90
